createdAt,value
2023-03-05T00:01:56.128Z,11.38
2023-03-05T00:04:23.714Z,10.63
2023-03-05T00:06:50.963Z,10.65
2023-03-05T00:09:18.124Z,10.60
2023-03-05T00:11:45.277Z,15.77
2023-03-05T00:14:12.675Z,13.80
2023-03-05T00:16:40.080Z,14.02
2023-03-05T00:19:07.531Z,14.88
2023-03-05T00:21:38.545Z,21.13
2023-03-05T00:24:13.880Z,14.35
2023-03-05T00:26:41.313Z,16.65
2023-03-05T00:29:09.648Z,13.07
2023-03-05T00:31:38.234Z,13.02
2023-03-05T00:34:09.223Z,17.38
2023-03-05T00:36:40.758Z,17.85
2023-03-05T00:39:08.011Z,14.98
2023-03-05T00:41:35.167Z,14.50
2023-03-05T00:44:02.371Z,20.67
2023-03-05T00:46:29.723Z,16.92
2023-03-05T00:48:57.610Z,12.25
2023-03-05T00:51:25.820Z,15.68
2023-03-05T00:53:53.196Z,14.30
2023-03-05T00:56:20.525Z,13.05
2023-03-05T00:58:47.735Z,11.73
2023-03-05T01:01:14.940Z,15.55
2023-03-05T01:03:42.166Z,13.50
2023-03-05T01:06:12.047Z,13.48
2023-03-05T01:08:39.599Z,12.65
2023-03-05T01:11:07.643Z,14.88
2023-03-05T01:13:35.141Z,14.00
2023-03-05T01:16:04.095Z,12.13
2023-03-05T01:18:31.381Z,14.13
2023-03-05T01:20:58.477Z,16.88
2023-03-05T01:23:25.759Z,17.90
2023-03-05T01:25:58.000Z,15.38
2023-03-05T01:28:25.860Z,14.00
2023-03-05T01:30:53.365Z,15.60
2023-03-05T01:33:20.685Z,17.48
2023-03-05T01:35:49.079Z,14.50
2023-03-05T01:38:16.867Z,20.20
2023-03-05T01:40:44.693Z,15.75
2023-03-05T01:43:12.094Z,17.58
2023-03-05T01:46:00.236Z,16.88
2023-03-05T01:48:27.914Z,15.15
2023-03-05T01:50:55.111Z,20.23
2023-03-05T01:53:22.284Z,21.13
2023-03-05T01:55:49.928Z,16.38
2023-03-05T01:58:18.050Z,18.58
2023-03-05T02:00:48.592Z,20.73
2023-03-05T02:03:16.579Z,13.55
2023-03-05T02:05:44.650Z,18.50
2023-03-05T02:08:17.523Z,17.67
2023-03-05T02:10:51.027Z,25.90
2023-03-05T02:13:23.647Z,22.27
2023-03-05T02:15:53.036Z,23.77
2023-03-05T02:18:21.288Z,24.75
2023-03-05T02:20:55.728Z,21.23
2023-03-05T02:23:29.160Z,23.17
2023-03-05T02:25:56.756Z,18.10
2023-03-05T02:28:37.654Z,16.20
2023-03-05T02:31:16.142Z,18.63
2023-03-05T02:33:44.157Z,17.02
2023-03-05T02:36:12.349Z,24.10
2023-03-05T02:38:40.804Z,15.70
2023-03-05T02:41:09.457Z,17.17
2023-03-05T02:43:37.215Z,21.38
2023-03-05T02:46:05.094Z,19.58
2023-03-05T02:48:32.754Z,15.75
2023-03-05T02:51:01.662Z,24.30
2023-03-05T02:53:28.869Z,17.88
2023-03-05T02:55:56.672Z,18.08
2023-03-05T02:58:23.859Z,16.33
2023-03-05T03:00:51.348Z,12.82
2023-03-05T03:03:18.716Z,15.13
2023-03-05T03:05:45.914Z,18.98
2023-03-05T03:08:12.995Z,20.90
2023-03-05T03:10:40.056Z,17.27
2023-03-05T03:13:07.182Z,16.08
2023-03-05T03:15:34.962Z,17.00
2023-03-05T03:18:02.012Z,22.15
2023-03-05T03:20:29.045Z,17.88
2023-03-05T03:22:56.170Z,18.75
2023-03-05T03:25:23.509Z,19.02
2023-03-05T03:27:52.583Z,17.48
2023-03-05T03:30:19.700Z,15.02
2023-03-05T03:32:48.129Z,19.33
2023-03-05T03:35:15.228Z,25.63
2023-03-05T03:37:42.400Z,16.42
2023-03-05T03:40:11.356Z,17.83
2023-03-05T03:42:38.470Z,14.07
2023-03-05T03:45:06.041Z,15.43
2023-03-05T03:47:33.197Z,20.05
2023-03-05T03:50:00.306Z,16.77
2023-03-05T03:52:27.641Z,20.80
2023-03-05T03:55:01.442Z,17.42
2023-03-05T03:57:30.250Z,12.98
2023-03-05T03:59:57.406Z,13.27
2023-03-05T04:02:24.667Z,15.00
2023-03-05T04:04:52.584Z,21.15
2023-03-05T04:07:20.096Z,18.05
2023-03-05T04:09:47.259Z,19.08
2023-03-05T04:12:18.278Z,17.95
2023-03-05T04:14:47.066Z,14.20
2023-03-05T04:17:14.411Z,20.75
2023-03-05T04:19:42.696Z,22.63
2023-03-05T04:22:12.773Z,21.20
2023-03-05T04:24:40.043Z,22.70
2023-03-05T04:27:07.469Z,17.48
2023-03-05T04:29:35.344Z,18.73
2023-03-05T04:32:02.590Z,16.40
2023-03-05T04:34:29.802Z,17.42
2023-03-05T04:36:57.424Z,20.25
2023-03-05T04:39:25.121Z,15.38
2023-03-05T04:41:52.379Z,21.60
2023-03-05T04:44:19.506Z,21.02
2023-03-05T04:46:46.583Z,28.42
2023-03-05T04:49:13.696Z,25.30
2023-03-05T04:51:40.786Z,27.00
2023-03-05T04:54:08.736Z,25.00
2023-03-05T04:56:35.946Z,26.20
2023-03-05T04:59:03.104Z,30.88
2023-03-05T05:01:30.277Z,30.20
2023-03-05T05:03:57.348Z,29.83
2023-03-05T05:06:24.477Z,24.63
2023-03-05T05:08:51.520Z,33.92
2023-03-05T05:11:18.653Z,23.17
2023-03-05T05:13:45.898Z,23.05
2023-03-05T05:16:13.205Z,25.83
2023-03-05T05:18:40.296Z,35.17
2023-03-05T05:21:09.577Z,23.50
2023-03-05T05:23:36.980Z,29.83
2023-03-05T05:26:05.979Z,35.58
2023-03-05T05:28:33.633Z,30.17
2023-03-05T05:31:01.036Z,22.33
2023-03-05T05:33:28.091Z,29.30
2023-03-05T05:35:55.209Z,26.30
2023-03-05T05:38:22.261Z,25.55
2023-03-05T05:40:49.307Z,26.95
2023-03-05T05:43:16.365Z,24.40
2023-03-05T05:45:43.794Z,26.20
2023-03-05T05:48:11.007Z,35.53
2023-03-05T05:50:39.433Z,21.15
2023-03-05T05:53:06.499Z,34.70
2023-03-05T05:55:33.616Z,33.35
2023-03-05T05:58:00.681Z,34.22
2023-03-05T06:00:27.814Z,34.30
2023-03-05T06:02:55.013Z,33.95
2023-03-05T06:05:22.287Z,32.10
2023-03-05T06:07:49.295Z,39.38
2023-03-05T06:10:16.419Z,31.95
2023-03-05T06:12:43.693Z,28.80
2023-03-05T06:15:11.020Z,29.45
2023-03-05T06:17:38.550Z,33.22
2023-03-05T06:20:07.116Z,26.08
2023-03-05T06:22:39.140Z,33.65
2023-03-05T06:25:10.036Z,29.45
2023-03-05T06:27:37.933Z,30.08
2023-03-05T06:30:06.592Z,35.05
2023-03-05T06:32:33.921Z,42.03
2023-03-05T06:35:01.009Z,28.30
2023-03-05T06:37:28.186Z,25.77
2023-03-05T06:39:55.291Z,34.25
2023-03-05T06:42:22.515Z,37.05
2023-03-05T06:44:49.576Z,25.83
2023-03-05T06:47:16.683Z,32.95
2023-03-05T06:49:43.789Z,31.13
2023-03-05T06:52:12.941Z,30.98
2023-03-05T06:54:40.536Z,34.70
2023-03-05T06:57:07.611Z,31.92
2023-03-05T06:59:34.706Z,27.77
2023-03-05T07:02:01.756Z,34.40
2023-03-05T07:04:28.882Z,36.60
2023-03-05T07:06:56.092Z,34.58
2023-03-05T07:09:23.242Z,30.33
2023-03-05T07:11:50.330Z,36.13
2023-03-05T07:14:17.472Z,30.48
2023-03-05T07:16:44.528Z,37.35
2023-03-05T07:19:11.699Z,35.72
2023-03-05T07:21:40.056Z,28.35
2023-03-05T07:24:09.057Z,32.42
2023-03-05T07:26:36.583Z,34.42
2023-03-05T07:29:04.210Z,35.80
2023-03-05T07:31:32.225Z,37.50
2023-03-05T07:34:01.871Z,27.63
2023-03-05T07:36:30.930Z,30.75
2023-03-05T07:38:58.120Z,28.35
2023-03-05T07:41:25.444Z,31.27
2023-03-05T07:43:54.468Z,34.55
2023-03-05T07:46:25.673Z,28.17
2023-03-05T07:48:54.725Z,38.55
2023-03-05T07:51:23.567Z,32.60
2023-03-05T07:53:52.251Z,32.40
2023-03-05T07:56:31.900Z,33.35
2023-03-05T07:59:00.778Z,33.05
2023-03-05T08:01:29.106Z,27.25
2023-03-05T08:03:56.499Z,27.05
2023-03-05T08:06:23.869Z,32.25
2023-03-05T08:08:51.022Z,29.13
2023-03-05T08:11:18.214Z,27.10
2023-03-05T08:13:45.797Z,31.65
2023-03-05T08:16:15.953Z,31.17
2023-03-05T08:18:44.132Z,29.88
2023-03-05T08:21:22.301Z,34.45
2023-03-05T08:23:50.140Z,36.13
2023-03-05T08:26:20.777Z,26.88
2023-03-05T08:28:47.967Z,33.88
2023-03-05T08:31:17.018Z,35.25
2023-03-05T08:33:44.216Z,32.10
2023-03-05T08:36:11.341Z,37.55
2023-03-05T08:38:38.416Z,35.53
2023-03-05T08:41:06.277Z,33.35
2023-03-05T08:43:33.626Z,29.75
2023-03-05T08:46:02.193Z,29.55
2023-03-05T08:48:29.988Z,29.90
2023-03-05T08:50:57.106Z,33.58
2023-03-05T08:53:24.377Z,31.02
2023-03-05T08:55:55.780Z,30.02
2023-03-05T08:58:23.090Z,29.13
2023-03-05T09:00:50.430Z,30.58
2023-03-05T09:03:18.077Z,25.85
2023-03-05T09:05:45.257Z,29.30
2023-03-05T09:08:12.881Z,30.60
2023-03-05T09:10:42.804Z,33.00
2023-03-05T09:13:10.693Z,28.85
2023-03-05T09:15:38.599Z,34.63
2023-03-05T09:18:05.959Z,31.95
2023-03-05T09:20:34.054Z,31.63
2023-03-05T09:23:01.278Z,30.92
2023-03-05T09:25:28.421Z,28.67
2023-03-05T09:27:55.583Z,26.83
2023-03-05T09:30:22.856Z,31.50
2023-03-05T09:32:51.272Z,38.80
2023-03-05T09:35:18.503Z,26.45
2023-03-05T09:37:45.591Z,33.22
2023-03-05T09:40:17.238Z,25.73
2023-03-05T09:43:06.040Z,29.02
2023-03-05T10:18:05.945Z,24.77
2023-03-05T10:20:38.949Z,25.15
2023-03-05T10:23:08.767Z,22.30
2023-03-05T10:25:47.952Z,26.75
2023-03-05T10:28:36.479Z,35.25
2023-03-05T10:31:18.745Z,27.50
2023-03-05T10:33:59.429Z,26.10
2023-03-05T10:36:41.771Z,29.02
2023-03-05T10:39:40.516Z,27.50
2023-03-05T10:42:21.716Z,26.48
2023-03-05T10:44:54.976Z,26.90
2023-03-05T10:47:24.243Z,23.80
2023-03-05T10:49:54.653Z,29.08
2023-03-05T10:52:35.436Z,26.90
2023-03-05T10:55:13.286Z,27.52
2023-03-05T10:57:40.456Z,27.88
2023-03-05T11:00:13.814Z,28.33
2023-03-05T11:02:58.044Z,31.75
2023-03-05T11:05:47.626Z,28.83
2023-03-05T11:08:35.586Z,29.50
2023-03-05T11:11:20.854Z,27.17
2023-03-05T11:13:55.958Z,26.15
2023-03-05T11:16:25.044Z,27.42
2023-03-05T11:19:17.665Z,25.80
2023-03-05T11:21:46.691Z,30.48
2023-03-05T11:24:19.422Z,32.90
2023-03-05T11:26:47.465Z,26.42
2023-03-05T11:29:23.890Z,24.50
2023-03-05T11:31:51.953Z,25.35
2023-03-05T11:34:18.964Z,25.30
2023-03-05T11:36:55.733Z,27.45
2023-03-05T11:39:25.311Z,24.38
2023-03-05T11:41:54.229Z,21.33
2023-03-05T11:44:28.891Z,24.60
2023-03-05T11:47:17.503Z,23.30
2023-03-05T11:49:48.010Z,26.75
2023-03-05T11:52:32.316Z,32.00
2023-03-05T11:55:19.816Z,25.35
2023-03-05T11:57:50.683Z,25.38
2023-03-05T12:00:24.936Z,20.77
2023-03-05T12:02:56.589Z,22.70
2023-03-05T12:05:23.840Z,24.77
2023-03-05T12:07:55.553Z,26.30
2023-03-05T12:10:25.718Z,26.88
2023-03-05T12:13:23.825Z,21.15
2023-03-05T12:16:09.912Z,21.75
2023-03-05T12:18:55.178Z,22.40
2023-03-05T12:21:37.128Z,24.55
2023-03-05T12:24:27.344Z,22.67
2023-03-05T12:27:04.214Z,22.98
2023-03-05T12:29:31.469Z,24.00
2023-03-05T12:32:01.961Z,30.45
2023-03-05T12:34:40.959Z,21.98
2023-03-05T12:37:34.882Z,22.73
2023-03-05T12:40:12.822Z,26.08
2023-03-05T12:42:46.032Z,26.20
2023-03-05T12:45:14.553Z,26.17
2023-03-05T12:47:45.210Z,21.70
2023-03-05T12:50:27.185Z,25.48
2023-03-05T12:52:59.861Z,24.35
2023-03-05T12:55:47.717Z,29.98
2023-03-05T12:58:40.265Z,33.25
2023-03-05T13:01:25.936Z,28.10
2023-03-05T13:04:05.289Z,34.78
2023-03-05T13:06:35.698Z,29.75
2023-03-05T13:09:14.918Z,37.03
2023-03-05T13:11:45.454Z,31.20
2023-03-05T13:14:30.565Z,35.55
2023-03-05T13:16:58.314Z,31.48
2023-03-05T13:19:25.474Z,38.95
2023-03-05T13:22:00.751Z,36.90
2023-03-05T13:24:29.375Z,33.95
2023-03-05T13:26:56.981Z,36.38
2023-03-05T13:29:30.900Z,34.17
2023-03-05T13:32:01.907Z,42.83
2023-03-05T13:34:41.100Z,37.78
2023-03-05T13:37:22.505Z,33.20
2023-03-05T13:40:00.231Z,36.97
2023-03-05T13:42:34.749Z,32.35
2023-03-05T13:45:20.536Z,32.17
2023-03-05T13:47:55.191Z,35.85
2023-03-05T13:50:31.514Z,43.15
2023-03-05T13:53:19.471Z,41.10
2023-03-05T13:55:48.460Z,41.58
2023-03-05T13:58:40.874Z,35.28
2023-03-05T14:02:08.436Z,37.65
2023-03-05T14:04:54.410Z,41.10
2023-03-05T14:07:34.687Z,36.63
2023-03-05T14:10:03.307Z,35.65
2023-03-05T14:12:36.178Z,40.90
2023-03-05T14:15:16.901Z,37.83
2023-03-05T14:17:44.188Z,43.92
2023-03-05T14:20:14.243Z,35.47
2023-03-05T14:22:48.654Z,41.15
2023-03-05T14:25:39.798Z,34.45
2023-03-05T14:28:25.429Z,48.95
2023-03-05T14:30:55.992Z,35.60
2023-03-05T14:33:28.733Z,39.88
2023-03-05T14:35:57.961Z,38.45
2023-03-05T14:38:30.033Z,45.05
2023-03-05T14:40:57.657Z,40.80
2023-03-05T14:43:24.834Z,42.40
2023-03-05T14:45:51.962Z,44.28
2023-03-05T14:48:19.258Z,47.83
2023-03-05T14:50:53.209Z,52.95
2023-03-05T14:53:25.001Z,39.90
2023-03-05T14:55:57.748Z,38.38
2023-03-05T14:58:27.717Z,38.92
2023-03-05T15:00:55.706Z,43.95
2023-03-05T15:03:25.770Z,44.97
2023-03-05T15:05:55.711Z,51.13
2023-03-05T15:08:28.225Z,51.17
2023-03-05T15:10:56.241Z,43.67
2023-03-05T15:13:23.426Z,40.92
2023-03-05T15:15:52.675Z,41.13
2023-03-05T15:18:21.984Z,40.83
2023-03-05T15:20:52.088Z,50.05
2023-03-05T15:23:19.972Z,57.05
2023-03-05T15:25:47.449Z,41.22
2023-03-05T15:28:15.076Z,42.08
2023-03-05T15:30:46.405Z,45.35
2023-03-05T15:33:16.808Z,45.25
2023-03-05T15:35:44.332Z,60.15
2023-03-05T15:38:11.685Z,70.70
2023-03-05T15:40:38.737Z,65.28
2023-03-05T15:43:05.982Z,54.25
2023-03-05T15:45:33.818Z,47.83
2023-03-05T15:48:01.180Z,50.88
2023-03-05T15:50:28.294Z,52.85
2023-03-05T15:52:55.361Z,52.35
2023-03-05T15:55:22.466Z,63.42
2023-03-05T15:57:51.336Z,48.75
2023-03-05T16:00:26.157Z,54.03
2023-03-05T16:02:53.590Z,51.88
2023-03-05T16:05:20.737Z,47.58
2023-03-05T16:07:51.882Z,53.80
2023-03-05T16:10:22.963Z,52.95
2023-03-05T16:12:54.328Z,50.72
2023-03-05T16:15:22.514Z,43.67
2023-03-05T16:17:54.610Z,53.40
2023-03-05T16:20:22.455Z,55.13
2023-03-05T16:22:49.934Z,52.25
2023-03-05T16:25:17.860Z,59.35
2023-03-05T16:27:45.367Z,47.85
2023-03-05T16:30:15.499Z,52.55
2023-03-05T16:32:43.064Z,50.97
2023-03-05T16:35:12.493Z,43.88
2023-03-05T16:37:40.471Z,52.38
2023-03-05T16:40:10.342Z,59.10
2023-03-05T16:42:37.732Z,68.18
2023-03-05T16:45:06.736Z,58.00
2023-03-05T16:47:34.011Z,56.63
2023-03-05T16:50:01.196Z,59.03
2023-03-05T16:52:28.796Z,48.30
2023-03-05T16:54:56.182Z,51.50
2023-03-05T16:57:25.745Z,51.83
2023-03-05T16:59:54.319Z,50.08
2023-03-05T17:02:21.692Z,50.45
2023-03-05T17:04:50.497Z,53.50
2023-03-05T17:07:18.358Z,51.30
2023-03-05T17:09:47.978Z,54.63
2023-03-05T17:12:15.159Z,48.22
2023-03-05T17:14:42.251Z,56.33
2023-03-05T17:17:09.424Z,55.20
2023-03-05T17:19:37.120Z,56.08
2023-03-05T17:22:05.277Z,63.38
2023-03-05T17:24:33.688Z,51.85
2023-03-05T17:27:01.410Z,60.47
2023-03-05T17:29:29.546Z,45.03
2023-03-05T17:31:56.759Z,51.35
2023-03-05T17:34:35.648Z,43.10
2023-03-05T17:37:04.669Z,45.92
2023-03-05T17:39:31.759Z,50.65
2023-03-05T17:41:58.936Z,45.67
2023-03-05T17:44:26.097Z,46.65
2023-03-05T17:46:53.532Z,47.45
2023-03-05T17:49:20.834Z,43.08
2023-03-05T17:51:48.042Z,42.15
2023-03-05T17:54:15.245Z,51.47
2023-03-05T17:56:42.512Z,55.22
2023-03-05T17:59:10.060Z,49.53
2023-03-05T18:01:37.330Z,54.83
2023-03-05T18:04:04.786Z,46.83
2023-03-05T18:06:32.923Z,39.53
2023-03-05T18:09:00.013Z,43.85
2023-03-05T18:11:27.761Z,49.33
2023-03-05T18:13:54.959Z,47.78
2023-03-05T18:16:23.684Z,42.78
2023-03-05T18:18:51.792Z,50.47
2023-03-05T18:21:24.064Z,47.80
2023-03-05T18:23:51.751Z,46.33
2023-03-05T18:26:18.824Z,48.45
2023-03-05T18:28:46.041Z,47.80
2023-03-05T18:31:13.319Z,43.90
2023-03-05T18:33:40.879Z,49.40
2023-03-05T18:36:10.876Z,51.47
2023-03-05T18:38:38.688Z,58.33
2023-03-05T18:41:06.713Z,48.25
2023-03-05T18:43:34.395Z,57.53
2023-03-05T18:46:05.056Z,50.08
2023-03-05T18:48:32.340Z,47.72
2023-03-05T18:51:01.984Z,47.75
2023-03-05T18:53:29.351Z,56.53
2023-03-05T18:55:56.510Z,53.53
2023-03-05T18:58:25.918Z,49.63
2023-03-05T19:00:53.427Z,47.00
2023-03-05T19:03:22.591Z,57.33
2023-03-05T19:05:51.417Z,60.10
2023-03-05T19:08:18.636Z,55.45
2023-03-05T19:10:45.864Z,49.50
2023-03-05T19:13:40.137Z,54.70
2023-03-05T19:16:13.309Z,53.17
2023-03-05T19:19:09.227Z,55.95
2023-03-05T19:21:47.998Z,47.45
2023-03-05T19:24:16.160Z,47.58
2023-03-05T19:26:44.189Z,56.92
2023-03-05T19:29:12.147Z,48.50
2023-03-05T19:31:39.777Z,47.47
2023-03-05T19:34:07.004Z,48.95
2023-03-05T19:36:35.736Z,50.45
2023-03-05T19:39:04.977Z,57.00
2023-03-05T19:41:32.309Z,47.88
2023-03-05T19:43:59.534Z,48.33
2023-03-05T19:46:26.752Z,42.00
2023-03-05T19:48:53.884Z,41.88
2023-03-05T19:51:23.872Z,39.80
2023-03-05T19:53:51.804Z,28.60
2023-03-05T19:56:19.707Z,22.63
2023-03-05T19:58:49.162Z,33.05
2023-03-05T20:01:22.298Z,32.50
2023-03-05T20:03:51.649Z,37.25
2023-03-05T20:06:19.684Z,33.08
2023-03-05T20:08:46.861Z,34.00
2023-03-05T20:11:15.983Z,33.90
2023-03-05T20:13:43.800Z,33.47
2023-03-05T20:16:19.513Z,25.67
2023-03-05T20:18:47.369Z,27.83
2023-03-05T20:21:21.663Z,34.90
2023-03-05T20:23:50.629Z,34.40
2023-03-05T20:26:18.723Z,31.48
2023-03-05T20:28:46.250Z,34.35
2023-03-05T20:31:13.369Z,34.38
2023-03-05T20:33:40.481Z,32.22
2023-03-05T20:36:08.761Z,62.22
2023-03-05T20:38:35.808Z,35.53
2023-03-05T20:41:15.189Z,27.83
2023-03-05T20:43:45.049Z,20.00
2023-03-05T20:46:21.993Z,18.00
2023-03-05T20:48:51.198Z,19.63
2023-03-05T20:51:24.738Z,25.65
2023-03-05T20:53:54.419Z,31.85
2023-03-05T20:56:21.631Z,58.03
2023-03-05T20:58:48.679Z,45.15
2023-03-05T21:01:15.774Z,30.50
2023-03-05T21:03:42.918Z,79.35
2023-03-05T21:06:10.027Z,46.03
2023-03-05T21:08:37.099Z,21.08
2023-03-05T21:11:09.459Z,21.77
2023-03-05T21:13:37.395Z,43.83
2023-03-05T21:16:25.388Z,32.10
2023-03-05T21:18:52.830Z,28.17
2023-03-05T21:21:20.061Z,28.45
2023-03-05T21:23:47.439Z,22.40
2023-03-05T21:26:15.264Z,17.35
2023-03-05T21:28:42.923Z,15.02
2023-03-05T21:31:20.212Z,13.73
2023-03-05T21:33:47.586Z,17.45
2023-03-05T21:36:18.860Z,18.10
2023-03-05T21:38:50.218Z,21.63
2023-03-05T21:41:18.354Z,25.83
2023-03-05T21:43:45.564Z,33.08
2023-03-05T21:46:14.349Z,30.13
2023-03-05T21:48:41.444Z,38.17
2023-03-05T21:51:38.474Z,54.55
2023-03-05T21:54:18.976Z,44.80
2023-03-05T21:56:46.795Z,42.67
2023-03-05T21:59:14.035Z,35.35
2023-03-05T22:01:41.142Z,31.60
2023-03-05T22:04:08.267Z,83.20
2023-03-05T22:06:35.554Z,121.53
2023-03-05T22:09:02.673Z,33.05
2023-03-05T22:11:29.755Z,55.35
2023-03-05T22:13:57.159Z,46.67
2023-03-05T22:16:26.035Z,32.55
2023-03-05T22:18:53.626Z,40.30
2023-03-05T22:21:23.937Z,36.00
2023-03-05T22:23:51.103Z,50.72
2023-03-05T22:26:18.196Z,53.50
2023-03-05T22:28:45.446Z,56.42
2023-03-05T22:31:21.088Z,46.92
2023-03-05T22:33:48.585Z,47.37
2023-03-05T22:36:16.329Z,45.72
2023-03-05T22:38:43.576Z,59.47
2023-03-05T22:41:12.667Z,48.75
2023-03-05T22:43:40.560Z,34.85
2023-03-05T22:46:14.997Z,33.78
2023-03-05T22:48:42.354Z,33.80
2023-03-05T22:51:11.466Z,31.40
2023-03-05T22:53:39.603Z,35.00
2023-03-05T22:56:12.832Z,35.45
2023-03-05T22:58:40.413Z,28.92
2023-03-05T23:01:14.305Z,34.10
2023-03-05T23:04:02.347Z,30.17
2023-03-05T23:06:40.201Z,29.50
2023-03-05T23:09:07.349Z,37.10
2023-03-05T23:11:34.632Z,33.63
2023-03-05T23:14:01.770Z,30.20
2023-03-05T23:16:28.859Z,34.78
2023-03-05T23:18:56.275Z,29.40
2023-03-05T23:21:23.322Z,31.40
2023-03-05T23:23:50.577Z,27.48
2023-03-05T23:26:17.690Z,37.45
2023-03-05T23:28:44.775Z,32.95
2023-03-05T23:31:11.984Z,25.92
2023-03-05T23:33:39.181Z,23.98
2023-03-05T23:36:06.525Z,28.42
2023-03-05T23:38:33.785Z,27.08
2023-03-05T23:41:02.959Z,24.65
2023-03-05T23:43:30.817Z,23.35
2023-03-05T23:45:58.125Z,20.30
2023-03-05T23:48:26.769Z,18.52
2023-03-05T23:50:54.871Z,23.45
2023-03-05T23:53:24.831Z,19.50
2023-03-05T23:55:52.594Z,18.48
2023-03-05T23:58:20.684Z,22.80
